KSYI

Details ICAO KSYI
Name BOMAR FLD SHELBYVILLE MUNI
Region United States
Timezone America/Chicago (UTC-5.0)
Plans Departing 0
Arriving 6
Stats Elevation 800 ft / 244 m (AMSL)
Location 35.560097° -86.442487°
Runways 1
Magnetic Variation 3.974° W
Sunrise 2018-05-21 10:38:12 UTC / 2018-05-21 05:38:12 Local
Sunset 2018-05-22 00:49:24 UTC / 2018-05-21 19:49:24 Local
Advertisement - Login to hide

Runways

ID Width Length Bearing (true) Bearing (mag) Surface Threshold Offset Overrun Length
18 100 ft / 30 m 5,016 ft / 1,529 m 179.35° 183.32° Asphalt 0 ft / 0 m 0 ft / 0 m
36 100 ft / 30 m 5,016 ft / 1,529 m 359.35° 3.32° Asphalt 0 ft / 0 m 0 ft / 0 m

Map

Weather


0- 5 10 15 20 25 30 35+ Temperature / ° C

Clouds and Precipitation
Forecast for 2018-05-22 00:00 UTC. Updated 4 hours ago

Ground ~20,000 ft ~40,000 ft Winds

METAR

KSYI 220235Z AUTO 00000KT 10SM CLR 20/17 A3008 RMK A01

TAF

Not found

Frequencies

Recorded 119.27 MHz AWOS 3
Unicom 122.80 MHz CTAF/UNICOM
Warning: Do not use this data for real-world aviation or navigation. No guarantee of current accuracy is given.